createdAt,value
2023-09-27T00:01:35.144Z,5.07
2023-09-27T00:04:02.015Z,4.53
2023-09-27T00:06:29.289Z,4.70
2023-09-27T00:08:56.155Z,4.87
2023-09-27T00:11:22.988Z,4.50
2023-09-27T00:13:50.338Z,5.27
2023-09-27T00:16:17.213Z,4.97
2023-09-27T00:18:44.261Z,4.57
2023-09-27T00:21:11.151Z,4.80
2023-09-27T00:23:38.366Z,5.17
2023-09-27T00:26:05.267Z,4.50
2023-09-27T00:28:32.067Z,5.13
2023-09-27T00:30:58.984Z,4.20
2023-09-27T00:33:26.122Z,5.03
2023-09-27T00:35:53.363Z,4.60
2023-09-27T00:38:20.263Z,4.70
2023-09-27T00:40:51.733Z,5.27
2023-09-27T00:43:33.278Z,5.37
2023-09-27T00:46:05.525Z,4.33
2023-09-27T00:48:33.874Z,4.40
2023-09-27T00:51:02.105Z,4.53
2023-09-27T00:53:34.064Z,5.37
2023-09-27T00:56:01.528Z,4.77
2023-09-27T00:58:34.363Z,4.50
2023-09-27T01:01:01.866Z,5.80
2023-09-27T01:03:28.837Z,6.70
2023-09-27T01:05:55.903Z,4.40
2023-09-27T01:08:22.826Z,4.80
2023-09-27T01:10:49.904Z,4.83
2023-09-27T01:13:19.648Z,4.83
2023-09-27T01:15:46.772Z,4.60
2023-09-27T01:18:13.764Z,4.57
2023-09-27T01:20:40.712Z,4.90
2023-09-27T01:23:07.949Z,5.23
2023-09-27T01:25:37.009Z,5.23
2023-09-27T01:28:07.724Z,4.97
2023-09-27T01:30:35.120Z,5.47
2023-09-27T01:33:09.096Z,5.10
2023-09-27T01:35:41.971Z,5.10
2023-09-27T01:38:10.745Z,5.40
2023-09-27T01:40:45.689Z,5.40
2023-09-27T01:43:13.084Z,5.57
2023-09-27T01:45:40.431Z,6.70
2023-09-27T01:48:07.585Z,7.90
2023-09-27T01:50:36.188Z,7.43
2023-09-27T01:53:04.241Z,7.60
2023-09-27T01:55:32.449Z,8.60
2023-09-27T01:58:01.535Z,8.30
2023-09-27T02:00:29.293Z,8.97
2023-09-27T02:02:57.996Z,8.10
2023-09-27T02:05:27.067Z,8.53
2023-09-27T02:07:54.256Z,8.30
2023-09-27T02:10:21.883Z,7.87
2023-09-27T02:12:48.938Z,8.67
2023-09-27T02:15:17.014Z,8.20
2023-09-27T02:17:44.685Z,7.47
2023-09-27T02:20:14.378Z,8.10
2023-09-27T02:22:42.296Z,7.90
2023-09-27T02:25:12.511Z,8.60
2023-09-27T02:27:40.227Z,9.70
2023-09-27T02:30:08.898Z,10.03
2023-09-27T02:32:35.963Z,8.30
2023-09-27T02:35:03.539Z,9.27
2023-09-27T02:37:31.362Z,8.83
2023-09-27T02:39:58.571Z,9.07
2023-09-27T02:42:26.175Z,9.10
2023-09-27T02:44:54.052Z,7.80
2023-09-27T02:47:21.323Z,8.77
2023-09-27T02:49:48.175Z,9.43
2023-09-27T02:52:14.961Z,8.57
2023-09-27T02:54:41.982Z,9.40
2023-09-27T02:57:08.968Z,8.70
2023-09-27T02:59:35.953Z,9.67
2023-09-27T03:02:04.419Z,9.40
2023-09-27T03:04:32.266Z,9.00
2023-09-27T03:07:00.638Z,8.67
2023-09-27T03:09:27.618Z,9.20
2023-09-27T03:11:54.814Z,10.00
2023-09-27T03:14:21.667Z,9.97
2023-09-27T03:16:48.583Z,9.40
2023-09-27T03:19:15.432Z,10.03
2023-09-27T03:21:42.249Z,9.00
2023-09-27T03:24:09.600Z,9.10
2023-09-27T03:26:36.889Z,10.53
2023-09-27T03:29:03.977Z,10.53
2023-09-27T03:31:31.533Z,10.23
2023-09-27T03:33:58.525Z,10.83
2023-09-27T03:36:25.393Z,8.87
2023-09-27T03:38:52.410Z,9.50
2023-09-27T03:41:19.527Z,8.17
2023-09-27T03:43:49.983Z,9.17
2023-09-27T03:46:17.227Z,9.10
2023-09-27T03:48:44.022Z,10.40
2023-09-27T03:51:11.035Z,10.90
2023-09-27T03:53:37.835Z,10.83
2023-09-27T03:56:05.031Z,10.33
2023-09-27T03:58:32.372Z,8.53
2023-09-27T04:00:59.286Z,7.43
2023-09-27T04:03:27.617Z,8.77
2023-09-27T04:05:54.769Z,9.27
2023-09-27T04:08:22.721Z,8.00
2023-09-27T04:10:50.301Z,8.13
2023-09-27T04:13:17.282Z,7.60
2023-09-27T04:15:44.297Z,7.23
2023-09-27T04:18:11.103Z,7.00
2023-09-27T04:20:38.162Z,6.57
2023-09-27T04:23:05.078Z,7.60
2023-09-27T04:25:31.975Z,6.83
2023-09-27T04:27:58.846Z,6.80
2023-09-27T04:30:25.923Z,8.03
2023-09-27T04:32:53.497Z,8.03
2023-09-27T04:35:21.503Z,7.83
2023-09-27T04:37:49.785Z,7.20
2023-09-27T04:40:16.942Z,7.63
2023-09-27T04:42:45.332Z,7.10
2023-09-27T04:45:13.997Z,7.70
2023-09-27T04:47:42.165Z,6.77
2023-09-27T04:50:16.644Z,5.63
2023-09-27T04:52:44.322Z,6.37
2023-09-27T04:55:11.388Z,6.80
2023-09-27T04:57:38.409Z,6.60
2023-09-27T05:00:07.641Z,7.33
2023-09-27T05:02:34.965Z,6.13
2023-09-27T05:05:01.911Z,5.50
2023-09-27T05:07:30.662Z,5.87
2023-09-27T05:09:57.618Z,5.90
2023-09-27T05:12:24.392Z,5.77
2023-09-27T05:14:51.199Z,5.30
2023-09-27T05:17:18.311Z,6.00
2023-09-27T05:19:45.349Z,5.43
2023-09-27T05:22:13.685Z,5.57
2023-09-27T05:24:40.474Z,5.83
2023-09-27T05:27:08.550Z,5.63
2023-09-27T05:29:35.940Z,5.00
2023-09-27T05:32:03.359Z,5.67
2023-09-27T05:34:32.088Z,5.17
2023-09-27T05:36:59.873Z,6.17
2023-09-27T05:39:26.881Z,5.43
2023-09-27T05:41:54.769Z,5.50
2023-09-27T05:44:21.692Z,5.70
2023-09-27T05:46:48.900Z,5.50
2023-09-27T05:49:16.307Z,4.67
2023-09-27T05:51:44.431Z,5.70
2023-09-27T05:54:11.819Z,4.83
2023-09-27T05:56:39.314Z,5.50
2023-09-27T05:59:10.310Z,6.03
2023-09-27T06:01:38.557Z,5.80
2023-09-27T06:04:05.698Z,6.10
2023-09-27T06:06:32.518Z,6.10
2023-09-27T06:08:59.750Z,5.77
2023-09-27T06:11:27.139Z,5.00
2023-09-27T06:13:53.945Z,6.07
2023-09-27T06:16:21.310Z,6.33
2023-09-27T06:18:48.829Z,6.37
2023-09-27T06:21:15.711Z,6.47
2023-09-27T06:23:42.728Z,5.43
2023-09-27T06:26:10.759Z,5.63
2023-09-27T06:28:40.517Z,6.20
2023-09-27T06:31:07.769Z,5.23
2023-09-27T06:33:40.330Z,5.93
2023-09-27T06:36:12.872Z,5.80
2023-09-27T06:38:40.523Z,6.20
2023-09-27T06:41:09.885Z,5.27
2023-09-27T06:43:36.790Z,5.60
2023-09-27T06:46:11.435Z,5.50
2023-09-27T06:48:39.152Z,6.70
2023-09-27T06:51:07.020Z,6.20
2023-09-27T06:53:34.866Z,6.20
2023-09-27T06:56:03.642Z,5.63
2023-09-27T06:58:31.255Z,5.40
2023-09-27T07:00:58.257Z,6.30
2023-09-27T07:03:30.780Z,6.53
2023-09-27T07:05:58.610Z,6.50
2023-09-27T07:08:25.621Z,5.83
2023-09-27T07:10:52.535Z,5.60
2023-09-27T07:13:19.325Z,5.00
2023-09-27T07:15:49.233Z,6.30
2023-09-27T07:18:16.166Z,7.33
2023-09-27T07:20:43.361Z,6.70
2023-09-27T07:23:16.172Z,7.20
2023-09-27T07:25:44.373Z,7.00
2023-09-27T07:28:12.294Z,7.50
2023-09-27T07:30:39.200Z,7.67
2023-09-27T07:33:13.211Z,8.00
2023-09-27T07:35:44.513Z,7.47
2023-09-27T07:38:12.293Z,8.67
2023-09-27T07:40:39.626Z,8.87
2023-09-27T07:43:06.898Z,9.33
2023-09-27T07:45:36.659Z,7.80
2023-09-27T07:48:04.865Z,10.40
2023-09-27T07:50:35.183Z,8.07
2023-09-27T07:53:07.231Z,9.87
2023-09-27T07:55:44.271Z,9.67
2023-09-27T07:58:13.706Z,11.37
2023-09-27T08:00:44.890Z,9.57
2023-09-27T08:03:12.680Z,9.10
2023-09-27T08:05:46.929Z,9.33
2023-09-27T08:08:17.630Z,9.90
2023-09-27T08:10:44.823Z,9.50
2023-09-27T08:13:16.830Z,9.90
2023-09-27T08:15:44.610Z,10.67
2023-09-27T08:18:11.652Z,10.40
2023-09-27T08:20:38.614Z,10.60
2023-09-27T08:23:05.887Z,11.30
2023-09-27T08:25:32.743Z,11.10
2023-09-27T08:28:02.348Z,10.47
2023-09-27T08:30:29.313Z,10.20
2023-09-27T08:32:56.241Z,12.07
2023-09-27T08:35:23.291Z,11.70
2023-09-27T08:37:50.252Z,11.40
2023-09-27T08:40:17.194Z,12.10
2023-09-27T08:42:44.557Z,11.10
2023-09-27T08:45:14.334Z,12.13
2023-09-27T08:47:43.247Z,12.73
2023-09-27T08:50:18.959Z,14.97
2023-09-27T08:52:48.074Z,15.90
2023-09-27T08:55:15.631Z,15.47
2023-09-27T08:57:47.833Z,14.00
2023-09-27T09:00:16.911Z,12.97
2023-09-27T09:02:45.899Z,13.70
2023-09-27T09:05:13.492Z,13.90
2023-09-27T09:07:44.329Z,15.40
2023-09-27T09:10:14.744Z,16.40
2023-09-27T09:12:43.531Z,16.80
2023-09-27T09:15:30.672Z,13.77
2023-09-27T09:18:00.598Z,16.03
2023-09-27T09:20:34.449Z,16.40
2023-09-27T09:23:08.366Z,15.77
2023-09-27T09:25:44.970Z,15.43
2023-09-27T09:28:14.565Z,11.00
2023-09-27T09:30:42.531Z,15.37
2023-09-27T09:33:21.318Z,13.70
2023-09-27T09:35:48.701Z,15.10
2023-09-27T09:38:32.191Z,16.50
2023-09-27T09:41:01.971Z,15.70
2023-09-27T09:43:36.436Z,14.80
2023-09-27T09:46:07.349Z,15.60
2023-09-27T09:48:35.626Z,15.50
2023-09-27T09:51:09.431Z,14.00
2023-09-27T09:53:41.583Z,10.00
2023-09-27T09:56:30.105Z,13.13
2023-09-27T09:59:04.943Z,13.80
2023-09-27T10:01:40.163Z,12.97
2023-09-27T10:04:08.539Z,12.20
2023-09-27T10:06:48.868Z,11.60
2023-09-27T10:09:18.222Z,11.40
2023-09-27T10:11:47.875Z,12.90
2023-09-27T10:14:17.850Z,12.90
2023-09-27T10:16:45.841Z,10.10
2023-09-27T10:19:14.325Z,11.17
2023-09-27T10:22:07.116Z,11.90
2023-09-27T10:24:38.411Z,11.73
2023-09-27T10:27:05.486Z,10.70
2023-09-27T10:29:32.417Z,11.50
2023-09-27T10:31:59.430Z,11.07
2023-09-27T10:34:26.552Z,10.33
2023-09-27T10:37:15.158Z,9.80
2023-09-27T10:40:20.647Z,9.27
2023-09-27T10:42:48.603Z,11.20
2023-09-27T10:45:17.978Z,8.07
2023-09-27T10:47:45.388Z,8.33
2023-09-27T10:50:12.348Z,8.90
2023-09-27T10:52:40.641Z,7.97
2023-09-27T10:55:15.373Z,9.77
2023-09-27T10:57:42.797Z,6.57
2023-09-27T11:00:13.572Z,8.03
2023-09-27T11:02:41.130Z,6.90
2023-09-27T11:05:09.501Z,7.83
2023-09-27T11:07:50.664Z,7.33
2023-09-27T11:10:34.310Z,5.67
2023-09-27T11:13:11.891Z,6.27
2023-09-27T11:15:43.086Z,5.87
2023-09-27T11:18:11.546Z,4.70
2023-09-27T11:20:39.547Z,6.10
2023-09-27T11:23:06.680Z,5.20
2023-09-27T11:25:35.960Z,5.60
2023-09-27T11:28:03.542Z,5.80
2023-09-27T11:30:33.181Z,5.40
2023-09-27T11:33:02.590Z,5.30
2023-09-27T11:35:29.990Z,5.17
2023-09-27T11:38:11.729Z,4.83
2023-09-27T11:40:41.342Z,5.37
2023-09-27T11:43:08.377Z,4.77
2023-09-27T11:45:51.271Z,5.03
2023-09-27T11:48:33.717Z,4.40
2023-09-27T11:51:01.887Z,4.90
2023-09-27T11:53:29.344Z,4.50
2023-09-27T11:55:56.963Z,4.73
2023-09-27T11:58:27.536Z,5.30
2023-09-27T12:00:54.472Z,5.10
2023-09-27T12:03:21.772Z,5.43
2023-09-27T12:05:49.616Z,5.10
2023-09-27T12:08:16.725Z,4.47
2023-09-27T12:10:43.553Z,5.33
2023-09-27T12:13:10.460Z,4.30
2023-09-27T12:15:37.260Z,4.20
2023-09-27T12:18:04.507Z,5.87
2023-09-27T12:20:40.931Z,4.40
2023-09-27T12:23:10.808Z,4.40
2023-09-27T12:25:38.190Z,4.87
2023-09-27T12:28:05.200Z,4.10
2023-09-27T12:30:32.223Z,4.60
2023-09-27T12:32:59.175Z,5.03
2023-09-27T12:35:26.269Z,4.33
2023-09-27T12:37:53.215Z,4.63
2023-09-27T12:40:20.115Z,4.33
2023-09-27T12:42:46.963Z,4.30
2023-09-27T12:45:14.856Z,4.30
2023-09-27T12:47:42.820Z,4.53
2023-09-27T12:50:10.315Z,4.70
2023-09-27T12:52:37.131Z,4.13
2023-09-27T12:55:06.322Z,4.13
2023-09-27T12:57:33.345Z,3.90
2023-09-27T13:00:00.424Z,4.50
2023-09-27T13:02:28.223Z,4.57
2023-09-27T13:04:55.251Z,4.43
2023-09-27T13:07:22.478Z,3.90
2023-09-27T13:09:50.232Z,4.37
2023-09-27T13:12:17.377Z,4.00
2023-09-27T13:14:44.484Z,4.00
2023-09-27T13:17:11.444Z,4.73
2023-09-27T13:19:38.410Z,4.00
2023-09-27T13:22:05.271Z,4.30
2023-09-27T13:24:32.636Z,4.00
2023-09-27T13:27:00.098Z,3.93
2023-09-27T13:29:27.079Z,3.87
2023-09-27T13:31:54.025Z,3.80
2023-09-27T13:34:20.984Z,4.30
2023-09-27T13:36:47.809Z,4.30
2023-09-27T13:39:26.826Z,4.33
2023-09-27T13:41:54.125Z,3.90
2023-09-27T13:44:21.357Z,4.50
2023-09-27T13:46:50.277Z,4.00
2023-09-27T13:49:18.244Z,4.90
2023-09-27T13:51:45.534Z,4.00
2023-09-27T13:54:15.582Z,3.83
2023-09-27T13:56:42.455Z,4.30
2023-09-27T13:59:09.757Z,4.80
2023-09-27T14:01:36.765Z,3.33
2023-09-27T14:04:04.393Z,3.77
2023-09-27T14:06:34.250Z,3.70
2023-09-27T14:09:01.177Z,3.50
2023-09-27T14:11:28.056Z,3.30
2023-09-27T14:13:55.142Z,3.50
2023-09-27T14:16:22.409Z,4.30
2023-09-27T14:18:49.777Z,3.50
2023-09-27T14:21:16.579Z,4.77
2023-09-27T14:23:44.192Z,4.43
2023-09-27T14:26:12.563Z,3.80
2023-09-27T14:28:40.139Z,3.30
2023-09-27T14:31:07.331Z,3.70
2023-09-27T14:33:35.148Z,3.97
2023-09-27T14:36:05.738Z,3.63
2023-09-27T14:38:36.079Z,4.10
2023-09-27T14:41:10.324Z,3.33
2023-09-27T14:43:40.476Z,3.70
2023-09-27T14:46:12.356Z,3.60
2023-09-27T14:48:39.869Z,3.70
2023-09-27T14:51:11.055Z,3.20
2023-09-27T14:53:38.250Z,3.50
2023-09-27T14:56:13.984Z,3.83
2023-09-27T14:58:41.461Z,3.63
2023-09-27T15:01:09.057Z,3.80
2023-09-27T15:03:36.149Z,3.67
2023-09-27T15:06:06.863Z,3.50
2023-09-27T15:08:34.307Z,3.43
2023-09-27T15:11:01.595Z,3.90
2023-09-27T15:13:28.718Z,3.67
2023-09-27T15:15:55.775Z,3.60
2023-09-27T15:18:25.685Z,3.80
2023-09-27T15:20:54.777Z,2.93
2023-09-27T15:23:21.779Z,3.00
2023-09-27T15:25:50.004Z,3.27
2023-09-27T15:28:17.651Z,3.40
2023-09-27T15:30:44.550Z,3.90
2023-09-27T15:33:11.361Z,4.27
2023-09-27T15:35:39.045Z,4.47
2023-09-27T15:38:06.082Z,3.43
2023-09-27T15:40:33.039Z,3.73
2023-09-27T15:42:59.922Z,3.90
2023-09-27T15:45:27.124Z,4.37
2023-09-27T15:47:54.234Z,3.40
2023-09-27T15:50:21.188Z,3.63
2023-09-27T15:52:48.790Z,4.13
2023-09-27T15:55:18.023Z,3.67
2023-09-27T15:57:45.062Z,3.40
2023-09-27T16:00:15.153Z,3.33
2023-09-27T16:02:41.997Z,3.60
2023-09-27T16:05:11.782Z,3.37
2023-09-27T16:07:40.060Z,4.00
2023-09-27T16:10:10.122Z,4.43
2023-09-27T16:12:37.712Z,4.10
2023-09-27T16:15:07.708Z,4.03
2023-09-27T16:17:36.783Z,3.63
2023-09-27T16:20:05.802Z,3.80
2023-09-27T16:22:32.619Z,4.47
2023-09-27T16:25:00.173Z,3.97
2023-09-27T16:27:27.265Z,3.40
2023-09-27T16:29:55.456Z,3.90
2023-09-27T16:32:23.030Z,3.50
2023-09-27T16:34:49.967Z,4.10
2023-09-27T16:37:16.857Z,3.87
2023-09-27T16:39:43.716Z,3.50
2023-09-27T16:42:10.616Z,4.30
2023-09-27T16:44:37.389Z,4.20
2023-09-27T16:47:04.220Z,4.30
2023-09-27T16:49:31.092Z,4.10
2023-09-27T16:51:57.916Z,4.57
2023-09-27T16:54:25.284Z,4.37
2023-09-27T16:56:52.081Z,4.53
2023-09-27T16:59:18.872Z,4.17
2023-09-27T17:01:45.807Z,4.33
2023-09-27T17:04:13.972Z,4.53
2023-09-27T17:06:40.984Z,4.57
2023-09-27T17:09:07.904Z,4.17
2023-09-27T17:11:35.019Z,4.80
2023-09-27T17:14:02.124Z,4.63
2023-09-27T17:16:29.184Z,5.50
2023-09-27T17:18:56.170Z,4.43
2023-09-27T17:21:23.501Z,4.57
2023-09-27T17:23:51.190Z,4.30
2023-09-27T17:26:18.155Z,4.90
2023-09-27T17:28:45.283Z,4.70
2023-09-27T17:31:12.817Z,4.33
2023-09-27T17:33:41.722Z,4.40
2023-09-27T17:36:08.690Z,4.73
2023-09-27T17:38:35.616Z,4.87
2023-09-27T17:41:02.669Z,4.87
2023-09-27T17:43:29.538Z,5.00
2023-09-27T17:45:57.190Z,4.63
2023-09-27T17:48:24.142Z,5.53
2023-09-27T17:50:51.016Z,4.47
2023-09-27T17:53:17.885Z,4.80
2023-09-27T17:55:45.142Z,4.77
2023-09-27T17:58:12.526Z,4.50
2023-09-27T18:00:39.329Z,5.20
2023-09-27T18:03:06.188Z,5.53
2023-09-27T18:05:33.714Z,4.87
2023-09-27T18:08:00.664Z,4.73
2023-09-27T18:10:27.957Z,5.13
2023-09-27T18:12:54.880Z,5.30
2023-09-27T18:15:28.282Z,4.13
2023-09-27T18:17:56.324Z,4.90
2023-09-27T18:20:23.704Z,4.70
2023-09-27T18:22:50.859Z,5.07
2023-09-27T18:25:17.740Z,5.57
2023-09-27T18:27:44.958Z,4.90
2023-09-27T18:30:12.289Z,5.40
2023-09-27T18:32:39.144Z,5.90
2023-09-27T18:35:06.513Z,5.50
2023-09-27T18:37:34.588Z,5.37
2023-09-27T18:40:01.805Z,5.47
2023-09-27T18:42:29.170Z,5.40
2023-09-27T18:44:56.106Z,5.03
2023-09-27T18:47:23.011Z,5.13
2023-09-27T18:49:49.863Z,4.90
2023-09-27T18:52:16.733Z,5.37
2023-09-27T18:54:43.628Z,5.33
2023-09-27T18:57:11.263Z,4.87
2023-09-27T18:59:38.055Z,5.47
2023-09-27T19:02:04.964Z,6.20
2023-09-27T19:04:31.952Z,5.60
2023-09-27T19:06:58.830Z,5.27
2023-09-27T19:09:25.610Z,5.70
2023-09-27T19:11:54.308Z,5.60
2023-09-27T19:14:21.447Z,5.77
2023-09-27T19:16:48.379Z,6.07
2023-09-27T19:19:15.644Z,5.60
2023-09-27T19:21:43.673Z,5.30
2023-09-27T19:24:11.030Z,5.23
2023-09-27T19:26:39.125Z,10.00
2023-09-27T19:29:06.049Z,26.60
2023-09-27T19:31:32.919Z,28.03
2023-09-27T19:34:00.986Z,30.60
2023-09-27T19:36:27.973Z,32.43
2023-09-27T19:38:54.813Z,19.00
2023-09-27T19:41:27.851Z,18.20
2023-09-27T19:43:54.999Z,14.03
2023-09-27T19:46:22.658Z,9.23
2023-09-27T19:48:49.519Z,8.70
2023-09-27T19:51:27.228Z,7.57
2023-09-27T19:53:55.406Z,8.37
2023-09-27T19:56:22.811Z,6.83
2023-09-27T19:58:50.031Z,7.30
2023-09-27T20:01:32.521Z,6.30
2023-09-27T20:03:59.990Z,6.30
2023-09-27T20:06:27.232Z,6.47
2023-09-27T20:08:54.138Z,6.47
2023-09-27T20:11:21.394Z,7.60
2023-09-27T20:13:48.215Z,7.80
2023-09-27T20:16:15.757Z,7.30
2023-09-27T20:18:42.622Z,8.43
2023-09-27T20:21:09.465Z,7.80
2023-09-27T20:23:36.322Z,8.20
2023-09-27T20:26:03.609Z,7.20
2023-09-27T20:28:30.590Z,7.07
2023-09-27T20:30:57.478Z,8.10
2023-09-27T20:33:25.076Z,7.17
2023-09-27T20:35:52.709Z,6.80
2023-09-27T20:38:19.715Z,6.83
2023-09-27T20:40:46.531Z,6.17
2023-09-27T20:43:13.443Z,6.73
2023-09-27T20:45:40.974Z,7.97
2023-09-27T20:48:07.998Z,7.07
2023-09-27T20:50:34.882Z,7.63
2023-09-27T20:53:01.765Z,7.70
2023-09-27T20:55:28.973Z,7.10
2023-09-27T20:57:55.872Z,7.00
2023-09-27T21:00:23.732Z,7.40
2023-09-27T21:02:50.822Z,6.37
2023-09-27T21:05:17.857Z,7.30
2023-09-27T21:07:44.691Z,7.17
2023-09-27T21:10:11.730Z,6.27
2023-09-27T21:12:38.602Z,6.60
2023-09-27T21:15:06.476Z,6.47
2023-09-27T21:17:33.399Z,6.80
2023-09-27T21:20:01.164Z,5.97
2023-09-27T21:22:28.196Z,6.83
2023-09-27T21:24:55.032Z,6.30
2023-09-27T21:27:21.801Z,6.83
2023-09-27T21:29:48.593Z,7.57
2023-09-27T21:32:16.164Z,6.07
2023-09-27T21:34:45.217Z,5.83
2023-09-27T21:37:15.681Z,6.17
2023-09-27T21:39:42.553Z,5.93
2023-09-27T21:42:09.951Z,6.47
2023-09-27T21:44:36.800Z,5.47
2023-09-27T21:47:04.782Z,6.20
2023-09-27T21:49:31.716Z,6.20
2023-09-27T21:51:58.526Z,7.00
2023-09-27T21:54:25.388Z,6.10
2023-09-27T21:56:52.161Z,6.17
2023-09-27T21:59:19.069Z,6.77
2023-09-27T22:01:46.096Z,6.33
2023-09-27T22:04:13.048Z,6.50
2023-09-27T22:06:40.049Z,7.03
2023-09-27T22:09:06.943Z,6.63
2023-09-27T22:11:33.811Z,7.03
2023-09-27T22:14:05.919Z,6.80
2023-09-27T22:16:34.276Z,5.80
2023-09-27T22:19:11.969Z,6.20
2023-09-27T22:21:42.697Z,6.93
2023-09-27T22:24:12.118Z,6.10
2023-09-27T22:26:39.652Z,6.30
2023-09-27T22:29:10.021Z,7.10
2023-09-27T22:31:40.462Z,6.93
2023-09-27T22:34:25.065Z,6.43
2023-09-27T22:36:54.461Z,6.83
2023-09-27T22:39:22.829Z,6.10
2023-09-27T22:41:53.116Z,6.63
2023-09-27T22:44:21.023Z,6.40
2023-09-27T22:46:49.794Z,6.50
2023-09-27T22:49:17.770Z,6.43
2023-09-27T22:51:46.915Z,6.40
2023-09-27T22:54:17.959Z,6.37
2023-09-27T22:56:46.241Z,5.60
2023-09-27T22:59:14.576Z,7.23
2023-09-27T23:01:43.951Z,7.23
2023-09-27T23:04:15.499Z,6.67
2023-09-27T23:06:46.323Z,6.30
2023-09-27T23:09:26.124Z,7.07
2023-09-27T23:12:12.914Z,6.43
2023-09-27T23:14:59.960Z,7.50
2023-09-27T23:17:31.936Z,6.90
2023-09-27T23:20:00.276Z,6.80
2023-09-27T23:22:27.681Z,6.40
2023-09-27T23:25:13.666Z,5.87
2023-09-27T23:27:40.506Z,5.93
2023-09-27T23:30:13.953Z,5.63
2023-09-27T23:32:41.266Z,5.37
2023-09-27T23:35:10.740Z,6.10
2023-09-27T23:37:38.123Z,5.80
2023-09-27T23:40:14.656Z,6.00
2023-09-27T23:42:48.218Z,5.80
2023-09-27T23:45:15.399Z,5.87
2023-09-27T23:47:51.045Z,5.97
2023-09-27T23:50:18.621Z,5.93
2023-09-27T23:52:47.047Z,5.50
2023-09-27T23:55:15.945Z,5.77
2023-09-27T23:57:47.844Z,5.40
